Time;durP1;ratioP1;P1;durP2;ratioP2;P2;SDS_P1;SDS_P2;PMS_P1;PMS_P2;Temp;Humidity;BMP_temperature;BMP_pressure;BME280_temperature;BME280_humidity;BME280_pressure;Samples;Min_cycle;Max_cycle;Signal;HPM_P1;HPM_P2
2023/02/22 00:01:07;;;;;;;43.05;16.25;;;;;;;3.07;100.00;99242.91;5030175;28;20368;-59
2023/02/22 00:03:33;;;;;;;47.65;17.05;;;;;;;2.87;100.00;99234.81;5036528;28;20465;-59
2023/02/22 00:06:03;;;;;;;37.63;15.63;;;;;;;2.89;100.00;99242.53;5047778;28;20033;-58
2023/02/22 00:08:30;;;;;;;31.70;13.80;;;;;;;2.74;100.00;99245.28;5043195;28;20036;-58
2023/02/22 00:10:57;;;;;;;44.25;16.20;;;;;;;2.48;100.00;99232.66;5066513;28;20045;-59
2023/02/22 00:13:22;;;;;;;50.22;20.02;;;;;;;2.25;100.00;99236.31;5058134;28;20021;-59
2023/02/22 00:15:47;;;;;;;38.67;13.55;;;;;;;2.22;100.00;99241.97;5045891;28;20044;-59
2023/02/22 00:18:14;;;;;;;35.22;14.23;;;;;;;2.79;100.00;99243.69;5043782;28;20041;-58
2023/02/22 00:20:40;;;;;;;31.95;12.88;;;;;;;2.60;100.00;99225.84;5043798;28;20029;-59
2023/02/22 00:23:06;;;;;;;31.25;13.45;;;;;;;2.82;100.00;99231.88;5046554;28;20037;-61
2023/02/22 00:25:32;;;;;;;37.63;14.40;;;;;;;2.66;100.00;99233.00;5047881;28;20040;-59
2023/02/22 00:27:57;;;;;;;49.63;16.92;;;;;;;2.44;100.00;99223.44;5040050;28;20108;-58
2023/02/22 00:30:25;;;;;;;32.65;13.70;;;;;;;2.64;100.00;99218.31;5049675;28;20028;-59
2023/02/22 00:32:51;;;;;;;29.63;13.27;;;;;;;2.75;100.00;99221.28;5044517;28;20035;-59
2023/02/22 00:35:18;;;;;;;32.45;13.55;;;;;;;2.93;100.00;99219.97;5046503;28;20021;-59
2023/02/22 00:37:46;;;;;;;30.02;12.43;;;;;;;2.87;100.00;99218.94;5075380;28;20460;-59
2023/02/22 00:40:16;;;;;;;34.90;14.35;;;;;;;3.01;100.00;99209.22;5040255;28;20450;-59
2023/02/22 00:42:42;;;;;;;40.67;15.80;;;;;;;2.66;100.00;99205.72;5047285;28;20119;-59
2023/02/22 00:45:08;;;;;;;29.63;12.60;;;;;;;2.70;100.00;99202.50;5050203;28;20037;-59
2023/02/22 00:47:34;;;;;;;32.10;13.57;;;;;;;2.53;100.00;99201.16;5022393;28;20037;-59
2023/02/22 00:49:59;;;;;;;27.27;12.45;;;;;;;2.49;100.00;99205.16;5057470;28;20391;-59
2023/02/22 00:52:28;;;;;;;35.80;13.90;;;;;;;2.26;100.00;99205.38;5033501;28;20459;-59
2023/02/22 00:54:54;;;;;;;29.10;12.40;;;;;;;2.21;100.00;99197.19;5046315;28;20037;-59
2023/02/22 00:57:20;;;;;;;29.25;13.02;;;;;;;2.14;100.00;99197.13;5045866;28;20497;-59
2023/02/22 00:59:45;;;;;;;29.83;12.50;;;;;;;2.45;100.00;99198.63;5043829;28;20163;-59
2023/02/22 01:02:11;;;;;;;30.95;12.68;;;;;;;2.46;100.00;99194.97;5045169;28;20060;-59
2023/02/22 01:04:37;;;;;;;28.80;12.68;;;;;;;2.16;100.00;99195.09;5049961;28;20025;-59
2023/02/22 01:07:02;;;;;;;31.75;12.95;;;;;;;2.14;100.00;99192.63;5044547;28;20502;-58
2023/02/22 01:09:28;;;;;;;26.25;12.13;;;;;;;2.04;100.00;99197.44;5051344;28;20028;-59
2023/02/22 01:11:56;;;;;;;30.00;12.98;;;;;;;2.28;100.00;99188.31;5035602;28;20052;-61
2023/02/22 01:14:22;;;;;;;30.50;11.98;;;;;;;2.17;100.00;99186.16;5051743;28;20321;-59
2023/02/22 01:16:49;;;;;;;26.77;12.23;;;;;;;2.22;100.00;99181.16;5037984;28;20029;-59
2023/02/22 01:19:15;;;;;;;27.83;12.25;;;;;;;2.09;100.00;99181.00;5041980;28;20024;-59
2023/02/22 01:21:40;;;;;;;25.75;11.90;;;;;;;1.96;100.00;99181.69;5045513;28;20396;-59
2023/02/22 01:24:06;;;;;;;29.02;12.82;;;;;;;1.90;100.00;99185.91;5043623;28;20502;-58
2023/02/22 01:26:31;;;;;;;34.85;13.32;;;;;;;1.94;100.00;99178.41;5043625;28;20032;-59
2023/02/22 01:28:57;;;;;;;25.23;11.90;;;;;;;1.89;100.00;99178.97;5038651;28;20388;-59
2023/02/22 01:31:22;;;;;;;29.27;12.55;;;;;;;1.98;100.00;99170.94;5051930;28;20124;-58
2023/02/22 01:33:49;;;;;;;32.00;13.25;;;;;;;1.88;100.00;99171.25;5046643;28;20029;-59
2023/02/22 01:36:15;;;;;;;32.30;13.75;;;;;;;2.00;100.00;99163.63;5045150;28;21742;-61
2023/02/22 01:38:41;;;;;;;30.00;13.15;;;;;;;2.05;100.00;99161.25;5043073;28;20116;-59
2023/02/22 01:41:06;;;;;;;26.77;12.95;;;;;;;1.83;100.00;99173.63;5040032;28;20032;-59
2023/02/22 01:43:32;;;;;;;29.30;12.32;;;;;;;1.62;100.00;99166.47;5031330;28;20275;-59
2023/02/22 01:46:01;;;;;;;29.88;12.88;;;;;;;1.49;100.00;99167.16;5048892;28;20443;-59
2023/02/22 01:48:40;;;;;;;26.57;12.20;;;;;;;1.41;100.00;99168.06;5044282;28;20037;-59
2023/02/22 01:51:10;;;;;;;33.58;13.07;;;;;;;1.40;100.00;99163.81;5050868;28;20831;-59
2023/02/22 01:53:58;;;;;;;28.47;13.23;;;;;;;1.41;100.00;99149.59;5044289;28;20036;-59
2023/02/22 01:56:24;;;;;;;30.27;12.77;;;;;;;1.47;100.00;99146.22;5031080;28;20376;-59
2023/02/22 01:58:53;;;;;;;28.58;12.30;;;;;;;1.31;100.00;99149.06;5033367;28;20029;-59
2023/02/22 02:01:19;;;;;;;27.90;12.40;;;;;;;1.24;100.00;99145.50;5038304;28;20111;-59
2023/02/22 02:03:44;;;;;;;30.13;12.52;;;;;;;1.35;100.00;99152.97;5041903;28;20211;-59
2023/02/22 02:06:12;;;;;;;29.63;12.93;;;;;;;1.41;100.00;99146.94;5038789;28;20451;-59
2023/02/22 02:08:55;;;;;;;27.90;12.98;;;;;;;1.37;100.00;99145.66;5026201;28;20447;-59
2023/02/22 02:11:24;;;;;;;29.23;12.90;;;;;;;1.26;100.00;99144.31;5057964;28;20411;-60
2023/02/22 02:13:50;;;;;;;26.35;12.85;;;;;;;1.55;100.00;99141.81;5038103;28;20037;-59
2023/02/22 02:16:16;;;;;;;26.25;13.32;;;;;;;1.37;100.00;99124.53;5045130;28;20111;-59
2023/02/22 02:18:41;;;;;;;26.05;13.00;;;;;;;1.22;100.00;99134.31;5052614;28;20042;-59
2023/02/22 02:21:36;;;;;;;25.80;13.10;;;;;;;1.07;100.00;99127.25;5036868;28;20434;-59
2023/02/22 02:24:29;;;;;;;23.42;12.43;;;;;;;1.02;100.00;99126.97;5043711;28;20037;-59
2023/02/22 02:27:26;;;;;;;26.45;13.02;;;;;;;0.90;100.00;99124.97;5042850;28;20495;-59
2023/02/22 02:30:03;;;;;;;26.33;13.20;;;;;;;1.05;100.00;99125.78;5034520;28;20061;-59
2023/02/22 02:32:34;;;;;;;31.10;14.23;;;;;;;1.44;100.00;99122.78;5040625;28;20128;-59
2023/02/22 02:35:27;;;;;;;32.55;14.40;;;;;;;1.18;100.00;99114.56;5043265;28;20061;-59
2023/02/22 02:38:05;;;;;;;33.53;14.07;;;;;;;1.62;100.00;99117.13;5041706;28;20029;-59
2023/02/22 02:40:46;;;;;;;30.90;13.63;;;;;;;1.70;100.00;99116.19;5042805;28;20122;-59
2023/02/22 02:43:32;;;;;;;34.97;15.27;;;;;;;1.50;100.00;99115.97;5043852;28;20039;-59
2023/02/22 02:46:08;;;;;;;39.97;14.88;;;;;;;2.01;100.00;99117.69;5043158;28;20072;-59
2023/02/22 02:48:34;;;;;;;41.75;16.80;;;;;;;1.64;100.00;99117.72;5039494;28;20518;-59
2023/02/22 02:51:00;;;;;;;38.40;16.40;;;;;;;1.32;100.00;99113.72;5042417;28;20072;-59
2023/02/22 02:53:29;;;;;;;32.28;15.52;;;;;;;0.95;100.00;99120.78;5040496;28;20041;-59
2023/02/22 02:55:58;;;;;;;33.33;14.35;;;;;;;0.70;100.00;99122.88;5026536;28;20033;-59
2023/02/22 02:58:23;;;;;;;32.60;14.30;;;;;;;0.68;100.00;99118.78;5033732;28;20025;-59
2023/02/22 03:00:51;;;;;;;31.38;14.02;;;;;;;0.48;100.00;99121.13;5041137;28;20018;-59
2023/02/22 03:03:40;;;;;;;40.88;14.70;;;;;;;0.36;100.00;99124.19;5048042;28;20036;-59
2023/02/22 03:06:30;;;;;;;28.77;13.65;;;;;;;0.48;100.00;99113.22;5043386;28;20476;-59
2023/02/22 03:09:12;;;;;;;35.42;14.68;;;;;;;0.51;100.00;99115.50;5035099;28;20112;-59
2023/02/22 03:12:00;;;;;;;35.35;14.13;;;;;;;0.46;100.00;99108.13;5034552;28;20076;-59
2023/02/22 03:14:39;;;;;;;37.50;15.00;;;;;;;0.36;100.00;99112.84;5026519;28;20551;-59
2023/02/22 03:17:17;;;;;;;38.15;14.75;;;;;;;0.30;100.00;99106.47;5038928;28;20272;-59
2023/02/22 03:19:51;;;;;;;40.63;15.98;;;;;;;0.47;100.00;99109.75;5022381;28;20079;-60
2023/02/22 03:22:24;;;;;;;40.03;15.30;;;;;;;0.59;100.00;99102.22;5037045;28;20030;-59
2023/02/22 03:25:19;;;;;;;37.70;14.85;;;;;;;0.33;100.00;99107.94;5043269;28;20048;-59
2023/02/22 03:27:52;;;;;;;36.60;14.60;;;;;;;0.14;100.00;99104.78;5020663;28;20502;-59
2023/02/22 03:30:30;;;;;;;30.25;13.38;;;;;;;0.09;100.00;99107.13;5027442;28;20676;-59
2023/02/22 03:32:59;;;;;;;37.40;15.70;;;;;;;0.37;100.00;99101.28;5024137;28;20148;-59
2023/02/22 03:35:25;;;;;;;103.10;35.35;;;;;;;0.42;100.00;99096.28;5032384;28;20352;-59
2023/02/22 03:37:55;;;;;;;91.38;33.20;;;;;;;0.54;100.00;99100.13;5022796;28;20041;-59
2023/02/22 03:40:25;;;;;;;40.40;17.92;;;;;;;0.80;100.00;99098.84;5026794;28;20123;-59
2023/02/22 03:43:04;;;;;;;46.08;19.02;;;;;;;0.91;100.00;99100.22;5037779;28;20475;-59
2023/02/22 03:45:29;;;;;;;37.75;17.55;;;;;;;0.86;100.00;99098.13;5023289;28;20024;-59
2023/02/22 03:48:05;;;;;;;85.63;32.20;;;;;;;1.37;100.00;99094.69;5036807;28;20471;-59
2023/02/22 03:50:34;;;;;;;59.05;25.17;;;;;;;0.93;100.00;99093.75;5033934;28;20044;-59
2023/02/22 03:52:59;;;;;;;55.72;23.88;;;;;;;1.32;100.00;99091.78;5036849;28;20037;-59
2023/02/22 03:55:27;;;;;;;42.40;18.23;;;;;;;1.08;100.00;99093.75;5051068;28;20029;-59
2023/02/22 03:58:05;;;;;;;35.67;17.13;;;;;;;0.78;100.00;99095.59;5025875;28;20349;-59
2023/02/22 04:00:31;;;;;;;41.00;17.40;;;;;;;0.53;100.00;99093.22;5040560;28;20021;-59
2023/02/22 04:02:57;;;;;;;35.90;16.25;;;;;;;0.49;100.00;99091.13;5065507;28;20064;-59
2023/02/22 04:05:23;;;;;;;34.95;16.27;;;;;;;0.40;100.00;99096.47;5039149;28;20028;-59
2023/02/22 04:07:52;;;;;;;69.07;20.15;;;;;;;0.17;100.00;99093.88;5041222;28;20048;-59
2023/02/22 04:10:18;;;;;;;60.72;23.08;;;;;;;0.13;100.00;99087.34;5041710;28;20057;-59
2023/02/22 04:12:43;;;;;;;48.70;17.02;;;;;;;0.50;100.00;99092.75;5039744;28;20064;-59
2023/02/22 04:15:11;;;;;;;46.33;18.45;;;;;;;0.15;100.00;99098.53;5045741;28;20051;-59
2023/02/22 04:17:37;;;;;;;48.08;19.42;;;;;;;0.18;100.00;99100.81;5047547;28;20049;-59
2023/02/22 04:20:03;;;;;;;47.00;18.38;;;;;;;0.02;100.00;99090.38;5040807;28;20036;-59
2023/02/22 04:22:29;;;;;;;44.92;16.88;;;;;;;-0.02;100.00;99094.38;5043508;28;20082;-59
2023/02/22 04:24:55;;;;;;;46.15;17.63;;;;;;;-0.12;100.00;99088.56;5047708;28;20017;-59
2023/02/22 04:27:20;;;;;;;45.97;16.75;;;;;;;-0.08;100.00;99087.19;5036194;28;20146;-59
2023/02/22 04:29:45;;;;;;;56.45;17.10;;;;;;;-0.05;100.00;99089.44;5049696;28;20458;-59
2023/02/22 04:32:11;;;;;;;56.65;17.95;;;;;;;-0.12;100.00;99092.00;5042212;28;20755;-59
2023/02/22 04:34:36;;;;;;;43.30;15.88;;;;;;;-0.13;100.00;99086.91;5037815;28;20527;-59
2023/02/22 04:37:02;;;;;;;48.28;17.13;;;;;;;-0.14;100.00;99083.44;5041869;28;20476;-59
2023/02/22 04:39:27;;;;;;;41.50;16.55;;;;;;;-0.13;100.00;99086.91;5040919;28;20029;-59
2023/02/22 04:41:53;;;;;;;44.72;15.15;;;;;;;-0.12;100.00;99091.19;5043698;28;20025;-59
2023/02/22 04:44:18;;;;;;;49.85;15.30;;;;;;;-0.11;100.00;99090.19;5043707;28;20024;-59
2023/02/22 04:46:45;;;;;;;75.28;18.23;;;;;;;-0.05;100.00;99086.81;5042863;28;20028;-59
2023/02/22 04:49:11;;;;;;;43.13;16.42;;;;;;;-0.03;100.00;99092.72;5040212;28;20121;-59
2023/02/22 04:51:36;;;;;;;51.67;16.45;;;;;;;0.10;100.00;99087.69;5037902;28;20625;-61
2023/02/22 04:54:02;;;;;;;101.78;17.92;;;;;;;0.18;100.00;99097.34;5037087;28;20029;-60
2023/02/22 04:56:27;;;;;;;57.20;17.65;;;;;;;0.12;100.00;99096.22;5043163;28;20317;-59
2023/02/22 04:58:53;;;;;;;100.57;16.83;;;;;;;-0.02;100.00;99094.38;5039938;28;20503;-60
2023/02/22 05:01:18;;;;;;;103.10;16.98;;;;;;;-0.01;100.00;99094.19;5053376;28;20036;-61
2023/02/22 05:03:44;;;;;;;115.28;16.42;;;;;;;-0.13;100.00;99092.16;5038009;28;20479;-61
2023/02/22 05:06:11;;;;;;;92.28;17.25;;;;;;;-0.16;100.00;99092.53;5043973;28;20025;-59
2023/02/22 05:08:36;;;;;;;158.32;17.50;;;;;;;-0.14;100.00;99086.06;5039599;28;20453;-59
2023/02/22 05:11:02;;;;;;;189.63;17.23;;;;;;;-0.19;100.00;99088.44;5045270;28;20557;-60
2023/02/22 05:13:30;;;;;;;150.20;15.73;;;;;;;-0.17;100.00;99085.63;5042930;28;20037;-59
2023/02/22 05:15:56;;;;;;;188.88;17.67;;;;;;;-0.15;100.00;99078.34;5044395;28;20135;-59
2023/02/22 05:18:21;;;;;;;109.70;15.23;;;;;;;-0.17;100.00;99083.00;5055632;28;20485;-58
2023/02/22 05:20:47;;;;;;;121.28;17.23;;;;;;;-0.08;100.00;99077.47;5051295;28;20554;-59
2023/02/22 05:23:12;;;;;;;150.77;17.67;;;;;;;-0.12;100.00;99072.75;5039980;28;20160;-58
2023/02/22 05:25:37;;;;;;;97.88;14.50;;;;;;;-0.25;100.00;99076.78;5042429;28;20464;-59
2023/02/22 05:28:06;;;;;;;174.10;17.17;;;;;;;-0.30;100.00;99073.88;5046378;28;20380;-58
2023/02/22 05:30:33;;;;;;;202.15;17.65;;;;;;;-0.22;100.00;99073.78;5046539;28;20040;-59
2023/02/22 05:32:59;;;;;;;253.88;17.95;;;;;;;-0.14;100.00;99072.09;5039279;28;20048;-59
2023/02/22 05:35:24;;;;;;;151.38;16.77;;;;;;;-0.14;100.00;99070.28;5043219;28;20439;-58
2023/02/22 05:37:50;;;;;;;289.20;17.58;;;;;;;-0.17;100.00;99064.56;5041399;28;20025;-59
2023/02/22 05:40:18;;;;;;;61.35;13.75;;;;;;;-0.15;100.00;99071.28;5051367;28;20025;-59
2023/02/22 05:42:43;;;;;;;103.20;15.38;;;;;;;-0.36;100.00;99073.75;5045386;28;20037;-59
2023/02/22 05:45:13;;;;;;;57.28;13.57;;;;;;;-0.33;100.00;99079.47;5043421;28;20040;-59
2023/02/22 05:47:39;;;;;;;38.45;13.77;;;;;;;-0.27;100.00;99070.88;5045870;28;20059;-60
2023/02/22 05:50:05;;;;;;;63.20;13.20;;;;;;;-0.37;100.00;99069.47;5043870;28;20079;-59
2023/02/22 05:52:30;;;;;;;53.50;11.57;;;;;;;-0.55;100.00;99077.63;5045926;28;20384;-58
2023/02/22 05:54:56;;;;;;;86.60;13.43;;;;;;;-0.53;100.00;99070.38;5037249;28;20072;-60
2023/02/22 05:57:21;;;;;;;46.85;12.75;;;;;;;-0.61;100.00;99067.81;5045552;28;20027;-60
2023/02/22 05:59:47;;;;;;;38.97;12.25;;;;;;;-0.75;100.00;99064.94;5040762;28;20088;-60
2023/02/22 06:02:12;;;;;;;39.22;12.52;;;;;;;-0.86;100.00;99065.31;5041025;28;20029;-60
2023/02/22 06:04:37;;;;;;;21.73;12.25;;;;;;;-0.76;100.00;99060.66;5041456;28;20029;-60
2023/02/22 06:07:03;;;;;;;42.92;14.57;;;;;;;-0.93;100.00;99065.19;5036978;28;20084;-60
2023/02/22 06:09:28;;;;;;;26.85;14.45;;;;;;;-0.85;100.00;99066.94;5046883;28;20024;-59
2023/02/22 06:11:54;;;;;;;23.70;12.70;;;;;;;-0.61;100.00;99060.75;5040855;28;20099;-60
2023/02/22 06:14:19;;;;;;;24.83;14.75;;;;;;;-0.66;100.00;99057.81;5044421;28;20043;-59
2023/02/22 06:16:51;;;;;;;27.75;14.38;;;;;;;-0.63;100.00;99059.28;5038205;28;20029;-59
2023/02/22 06:19:16;;;;;;;24.95;13.82;;;;;;;-0.49;100.00;99061.16;5049906;28;20084;-60
2023/02/22 06:21:50;;;;;;;26.40;13.90;;;;;;;-0.38;100.00;99058.09;5047993;28;20032;-60
2023/02/22 06:24:16;;;;;;;22.23;13.27;;;;;;;-0.38;100.00;99063.38;5038721;28;20053;-60
2023/02/22 06:26:42;;;;;;;25.77;13.77;;;;;;;-0.53;100.00;99054.59;5038318;28;20041;-60
2023/02/22 06:29:08;;;;;;;20.85;12.57;;;;;;;-0.79;100.00;99055.75;5043614;28;20021;-61
2023/02/22 06:31:33;;;;;;;21.90;12.40;;;;;;;-0.60;100.00;99053.66;5043326;28;20036;-59
2023/02/22 06:33:59;;;;;;;21.70;11.98;;;;;;;-0.28;100.00;99053.41;5043031;28;20079;-60
2023/02/22 06:36:24;;;;;;;23.80;12.88;;;;;;;0.16;100.00;99055.34;5049043;28;20056;-60
2023/02/22 06:38:50;;;;;;;35.75;14.95;;;;;;;-0.05;100.00;99057.84;5040717;28;20021;-60
2023/02/22 06:41:15;;;;;;;27.92;14.38;;;;;;;-0.18;100.00;99062.91;5047756;28;20484;-60
2023/02/22 06:43:41;;;;;;;35.17;13.18;;;;;;;0.08;100.00;99062.53;5042530;28;20322;-60
2023/02/22 06:46:10;;;;;;;26.50;14.07;;;;;;;-0.08;100.00;99066.09;5042588;28;20025;-59
2023/02/22 06:48:37;;;;;;;29.80;14.13;;;;;;;-0.12;100.00;99068.28;5045766;28;20124;-62
2023/02/22 06:51:03;;;;;;;36.72;14.32;;;;;;;-0.08;100.00;99064.28;5049741;28;20032;-59
2023/02/22 06:53:28;;;;;;;42.92;14.80;;;;;;;-0.04;100.00;99064.75;5047850;28;20055;-61
2023/02/22 06:55:54;;;;;;;52.70;14.35;;;;;;;-0.04;100.00;99072.66;5039651;28;20037;-58
2023/02/22 06:58:19;;;;;;;39.85;15.63;;;;;;;-0.05;100.00;99066.59;5043399;28;20044;-59
2023/02/22 07:00:45;;;;;;;42.40;15.18;;;;;;;0.00;100.00;99071.31;5066925;28;20030;-59
2023/02/22 07:03:10;;;;;;;177.65;26.05;;;;;;;-0.15;100.00;99073.06;5043967;28;20426;-59
2023/02/22 07:05:37;;;;;;;109.88;33.60;;;;;;;-0.33;100.00;99073.38;5035446;28;20029;-59
2023/02/22 07:08:04;;;;;;;73.43;26.98;;;;;;;-0.26;100.00;99077.75;5040356;28;20018;-62
2023/02/22 07:10:30;;;;;;;57.03;20.55;;;;;;;-0.16;100.00;99076.72;5072932;28;20399;-59
2023/02/22 07:12:55;;;;;;;65.43;20.48;;;;;;;-0.18;100.00;99089.25;5042449;28;20025;-60
2023/02/22 07:15:22;;;;;;;90.40;27.73;;;;;;;-0.03;100.00;99088.28;5034850;28;20040;-60
2023/02/22 07:17:48;;;;;;;78.63;22.27;;;;;;;0.08;100.00;99089.69;5036979;28;20403;-59
2023/02/22 07:20:14;;;;;;;69.40;21.70;;;;;;;0.16;100.00;99097.53;5041075;28;20120;-59
2023/02/22 07:22:40;;;;;;;128.38;33.60;;;;;;;0.06;100.00;99089.03;5034504;28;20116;-59
2023/02/22 07:25:08;;;;;;;61.15;21.50;;;;;;;0.03;100.00;99092.03;5042274;28;20059;-59
2023/02/22 07:27:35;;;;;;;47.72;17.67;;;;;;;-0.02;100.00;99075.94;5050197;28;20032;-59
2023/02/22 07:30:00;;;;;;;58.78;21.77;;;;;;;0.19;100.00;99080.53;5033748;28;20060;-59
2023/02/22 07:32:26;;;;;;;55.35;22.42;;;;;;;0.38;100.00;99079.22;5041963;28;20029;-59
2023/02/22 07:34:51;;;;;;;56.38;21.95;;;;;;;0.71;100.00;99087.56;5033962;28;20040;-59
2023/02/22 07:37:16;;;;;;;100.65;35.17;;;;;;;0.89;100.00;99084.56;5037587;28;20033;-59
2023/02/22 07:39:42;;;;;;;71.85;24.85;;;;;;;1.15;100.00;99092.00;5045080;28;20044;-59
2023/02/22 07:42:08;;;;;;;61.75;24.80;;;;;;;1.45;100.00;99087.47;5044247;28;20016;-59
2023/02/22 07:44:33;;;;;;;58.22;23.30;;;;;;;1.64;100.00;99087.84;5040698;28;20027;-59
2023/02/22 07:47:00;;;;;;;61.30;23.13;;;;;;;1.75;100.00;99092.66;5038994;28;20040;-59
2023/02/22 07:49:26;;;;;;;47.67;21.02;;;;;;;1.98;100.00;99091.63;5048392;28;20092;-59
2023/02/22 07:51:51;;;;;;;57.78;22.77;;;;;;;2.23;100.00;99090.22;5034472;28;20045;-59
2023/02/22 07:54:16;;;;;;;52.80;22.02;;;;;;;2.52;100.00;99085.72;5035091;28;20021;-59
2023/02/22 07:56:48;;;;;;;53.65;20.48;;;;;;;2.69;100.00;99078.31;5045595;28;20040;-60
2023/02/22 07:59:14;;;;;;;45.30;19.85;;;;;;;2.67;100.00;99082.97;5036197;28;20045;-59
2023/02/22 08:01:39;;;;;;;63.25;23.33;;;;;;;2.91;100.00;99081.69;5029601;28;20087;-59
2023/02/22 08:04:05;;;;;;;76.53;27.38;;;;;;;3.28;100.00;99076.94;5038252;28;20025;-59
2023/02/22 08:06:30;;;;;;;49.95;21.05;;;;;;;3.28;100.00;99074.31;5045509;28;20029;-61
2023/02/22 08:08:56;;;;;;;36.70;17.90;;;;;;;3.52;100.00;99076.41;5038573;28;20550;-59
2023/02/22 08:11:23;;;;;;;51.58;21.50;;;;;;;3.32;100.00;99078.16;5040161;28;20045;-59
2023/02/22 08:13:48;;;;;;;42.00;19.58;;;;;;;3.73;100.00;99071.97;5014972;28;20032;-62
2023/02/22 08:16:13;;;;;;;42.85;19.10;;;;;;;3.64;99.03;99077.47;5043157;28;20030;-59
2023/02/22 08:18:39;;;;;;;36.45;18.67;;;;;;;3.74;99.44;99073.59;5039430;28;20025;-59
2023/02/22 08:21:05;;;;;;;40.08;17.40;;;;;;;4.09;97.16;99075.06;5043964;28;20260;-58
2023/02/22 08:23:31;;;;;;;31.13;15.73;;;;;;;4.09;99.11;99076.88;5037371;28;20364;-61
2023/02/22 08:26:03;;;;;;;42.38;22.02;;;;;;;3.98;97.99;99065.03;5046233;28;20086;-60
2023/02/22 08:28:28;;;;;;;60.03;27.67;;;;;;;3.77;98.33;99055.47;5048290;28;20036;-59
2023/02/22 08:30:54;;;;;;;50.35;24.98;;;;;;;3.95;99.04;99060.16;5045971;28;20110;-60
2023/02/22 08:33:19;;;;;;;72.18;28.50;;;;;;;3.85;99.16;99057.09;5047906;28;20028;-60
2023/02/22 08:35:48;;;;;;;86.30;36.65;;;;;;;4.11;99.91;99061.56;5047178;28;20024;-60
2023/02/22 08:38:18;;;;;;;72.35;35.05;;;;;;;4.60;98.79;99051.53;5051498;28;20044;-58
2023/02/22 08:40:43;;;;;;;54.60;24.10;;;;;;;4.61;97.44;99053.94;5043030;28;20114;-60
2023/02/22 08:43:09;;;;;;;60.40;28.45;;;;;;;4.96;97.50;99058.97;5050788;28;20033;-60
2023/02/22 08:45:34;;;;;;;54.50;25.85;;;;;;;5.29;93.95;99048.22;5046825;28;20045;-60
2023/02/22 08:47:59;;;;;;;43.05;23.02;;;;;;;5.32;94.11;99053.09;5045469;28;20040;-60
2023/02/22 08:50:31;;;;;;;33.10;17.67;;;;;;;4.89;96.00;99048.38;5046796;28;20094;-61
2023/02/22 08:52:58;;;;;;;26.30;15.27;;;;;;;5.29;95.21;99052.69;5035965;28;20073;-59
2023/02/22 08:55:25;;;;;;;30.23;14.85;;;;;;;5.30;95.16;99055.13;5045425;28;20026;-59
2023/02/22 08:57:51;;;;;;;30.98;15.25;;;;;;;5.43;94.75;99058.75;5043189;28;20057;-59
2023/02/22 09:00:20;;;;;;;28.85;15.65;;;;;;;5.55;95.86;99049.88;5044201;28;20034;-61
2023/02/22 09:02:45;;;;;;;32.42;16.98;;;;;;;5.59;92.67;99048.44;5043044;28;20055;-58
2023/02/22 09:05:11;;;;;;;32.95;16.10;;;;;;;5.38;93.80;99046.09;5047605;28;20459;-58
2023/02/22 09:07:36;;;;;;;35.03;16.40;;;;;;;5.79;94.89;99042.97;5077437;28;20033;-59
2023/02/22 09:10:02;;;;;;;26.98;14.57;;;;;;;5.99;93.16;99044.69;5068735;28;20511;-59
2023/02/22 09:12:27;;;;;;;32.53;15.88;;;;;;;5.51;91.49;99045.19;5042959;28;20542;-59
2023/02/22 09:14:52;;;;;;;27.98;14.50;;;;;;;5.70;94.21;99046.94;5041803;28;20025;-59
2023/02/22 09:17:18;;;;;;;40.15;15.90;;;;;;;6.03;96.33;99048.56;5046320;28;20593;-58
2023/02/22 09:19:44;;;;;;;47.80;18.15;;;;;;;5.96;94.39;99047.78;5045973;28;20033;-61
2023/02/22 09:22:09;;;;;;;40.42;16.73;;;;;;;5.55;98.14;99047.22;5038004;28;20375;-61
2023/02/22 09:24:35;;;;;;;43.42;17.27;;;;;;;5.65;96.58;99043.28;5041268;28;20041;-60
2023/02/22 09:27:03;;;;;;;55.35;20.02;;;;;;;5.87;96.33;99038.44;5045165;28;20493;-61
2023/02/22 09:29:28;;;;;;;50.95;20.45;;;;;;;5.06;97.50;99042.56;5050832;28;20037;-60
2023/02/22 09:31:54;;;;;;;47.38;19.10;;;;;;;5.06;99.98;99037.25;5048144;28;20040;-60
2023/02/22 09:34:21;;;;;;;43.97;18.75;;;;;;;5.43;98.12;99027.66;5041176;28;20494;-60
2023/02/22 09:36:47;;;;;;;42.03;18.92;;;;;;;5.86;94.31;99026.16;5046305;28;20064;-60
2023/02/22 09:39:16;;;;;;;43.10;19.48;;;;;;;6.20;93.43;99033.66;5031533;28;20033;-60
2023/02/22 09:41:47;;;;;;;38.58;17.67;;;;;;;6.38;92.33;99024.91;5038045;28;20044;-61
2023/02/22 09:44:28;;;;;;;45.88;19.40;;;;;;;6.95;91.80;99023.88;5044184;28;20039;-60
2023/02/22 09:46:55;;;;;;;43.85;19.13;;;;;;;6.45;92.65;99016.84;5041851;28;20605;-61
2023/02/22 09:49:57;;;;;;;46.40;20.80;;;;;;;7.00;89.72;99021.34;5047347;28;20032;-60
2023/02/22 09:52:38;;;;;;;65.78;20.38;;;;;;;7.16;88.19;99014.59;5024780;28;20448;-60
2023/02/22 09:55:11;;;;;;;46.85;21.13;;;;;;;7.35;89.14;99021.50;5040345;28;20019;-60
2023/02/22 09:57:39;;;;;;;41.17;19.75;;;;;;;7.34;90.80;99019.91;5028576;28;20020;-60
2023/02/22 10:00:18;;;;;;;49.17;22.67;;;;;;;7.59;90.27;99018.91;5036122;28;20036;-60
2023/02/22 10:02:52;;;;;;;51.92;21.33;;;;;;;8.11;88.17;99027.97;5046608;28;20032;-60
2023/02/22 10:05:26;;;;;;;52.28;21.02;;;;;;;8.29;85.89;99013.69;5074257;28;20021;-59
2023/02/22 10:08:04;;;;;;;55.88;20.55;;;;;;;8.92;82.14;99016.63;5021591;28;20053;-60
2023/02/22 10:10:35;;;;;;;45.45;19.75;;;;;;;8.52;82.47;99009.41;5046829;28;20359;-59
2023/02/22 10:13:19;;;;;;;52.08;23.02;;;;;;;9.00;80.80;99013.59;5039871;28;20356;-59
2023/02/22 10:16:32;;;;;;;53.63;23.05;;;;;;;9.62;80.32;99007.50;5041808;28;20090;-59
2023/02/22 10:19:13;;;;;;;46.40;20.13;;;;;;;9.34;83.25;99017.19;4968539;28;20505;-59
2023/02/22 10:21:44;;;;;;;49.08;20.38;;;;;;;9.56;79.84;99014.66;5016032;28;20474;-61
2023/02/22 10:24:23;;;;;;;45.13;19.98;;;;;;;9.85;79.28;99011.91;5044141;28;20024;-60
2023/02/22 10:26:49;;;;;;;38.55;19.05;;;;;;;9.83;79.46;99004.09;5051245;28;20093;-59
2023/02/22 10:29:38;;;;;;;58.35;19.70;;;;;;;9.66;79.76;99001.44;5054968;28;20022;-59
2023/02/22 10:32:05;;;;;;;66.95;25.50;;;;;;;9.90;80.00;99001.28;5043257;28;20037;-59
2023/02/22 10:34:40;;;;;;;57.92;20.80;;;;;;;9.78;80.56;98990.63;5050986;28;20240;-59
2023/02/22 10:37:21;;;;;;;48.47;20.08;;;;;;;8.84;85.42;98999.91;5043958;28;20384;-60
2023/02/22 10:39:47;;;;;;;73.07;21.10;;;;;;;9.59;84.70;98999.97;5035436;28;20036;-59
2023/02/22 10:42:12;;;;;;;64.05;21.33;;;;;;;9.72;85.31;99007.69;5048221;28;20021;-59
2023/02/22 10:44:38;;;;;;;59.65;20.17;;;;;;;9.80;84.14;98998.44;5040775;28;20368;-59
2023/02/22 10:47:08;;;;;;;50.53;18.52;;;;;;;9.59;84.65;98995.44;5047813;28;20022;-59
2023/02/22 10:49:37;;;;;;;51.85;20.30;;;;;;;9.65;85.62;98994.44;5027357;28;20020;-60
2023/02/22 10:52:03;;;;;;;44.15;19.08;;;;;;;9.85;83.83;98996.66;5022335;28;20032;-59
2023/02/22 10:54:40;;;;;;;50.38;18.55;;;;;;;10.36;83.20;99000.13;5036015;28;20037;-59
2023/02/22 10:57:05;;;;;;;52.78;20.13;;;;;;;9.90;83.31;98990.56;5037281;28;20025;-59
2023/02/22 10:59:38;;;;;;;47.35;20.23;;;;;;;10.82;80.69;98991.09;5042001;28;20032;-59
2023/02/22 11:02:19;;;;;;;42.25;18.10;;;;;;;10.89;79.92;98984.47;5038740;28;20025;-59
2023/02/22 11:04:50;;;;;;;45.53;19.13;;;;;;;10.49;80.32;98988.25;5054113;28;20056;-59
2023/02/22 11:07:18;;;;;;;48.88;18.23;;;;;;;10.69;80.73;98981.53;5043113;28;20118;-59
2023/02/22 11:09:51;;;;;;;50.80;18.88;;;;;;;11.03;80.06;98976.84;5033432;28;20379;-59
2023/02/22 11:12:27;;;;;;;36.33;16.95;;;;;;;11.09;79.20;98967.00;5031876;28;20017;-58
2023/02/22 11:14:53;;;;;;;37.72;16.58;;;;;;;10.81;81.60;98968.84;5041218;28;20036;-59
2023/02/22 11:17:24;;;;;;;34.53;17.58;;;;;;;10.95;80.04;98969.25;5040280;28;20308;-58
2023/02/22 11:19:50;;;;;;;43.83;16.67;;;;;;;10.61;83.38;98969.41;5023252;28;20071;-61
2023/02/22 11:22:34;;;;;;;44.30;17.33;;;;;;;10.17;86.52;98968.50;5040401;28;20029;-60
2023/02/22 11:25:01;;;;;;;42.17;16.88;;;;;;;10.23;85.17;98967.50;5017724;28;20019;-60